Green Lofoten — P3MG8 — position and weather

sailwx.info

Track history (hours):
 
Tides and Currents Weather Stations Pressure Air Temp Water Temp Dewpoint Dewpoint Depression Visibility Wind Speed Wind Dir Waves Ship Positions

Green Lofoten

Last reported at 2014-Sep-23 09:14 UTC. Time now 2014-Sep-23 12:26 UTC.
Position N 57°45' E 010°54'.

Length 98 m; draft 4.7 m.

Type: Cargo ship. MMSI: 212857000.

Date/timePositionNaut miles runAvg speedWind from/ knotsBaromVisibWave heightAir tempDewpointWater temp
2014-Sep-23 09:14N 57°45' E 010°54'1014.2
2014-Sep-23 08:33N 57°38' E 011°06'1413.9
2014-Sep-23 07:34N 57°28' E 011°25'1414.0
2014-Sep-23 06:33N 57°15' E 011°34'1414.1
2014-Sep-23 05:33N 57°02' E 011°43'1414.0
2014-Sep-23 04:33N 56°49' E 011°52'1413.8
2014-Sep-23 03:32N 56°35' E 011°58'1313.6
2014-Sep-23 02:33N 56°22' E 012°03'1313.0
2014-Sep-23 01:33N 56°13' E 012°20'1413.9
2014-Sep-23 00:34N 56°04' E 012°39'1212.4
2014-Sep-22 23:34N 55°51' E 012°41'1312.6
2014-Sep-22 22:34N 55°39' E 012°42'1212.0
2014-Sep-22 21:33N 55°27' E 012°42'1211.6
2014-Sep-22 20:33N 55°16' E 012°51'1515.0
2014-Sep-22 19:33N 55°15' E 013°17'3315.2
2014-Sep-22 17:25N 55°14' E 014°14'1315.1
2014-Sep-22 16:33N 55°23' E 014°30'1615.0
2014-Sep-22 15:31N 55°31' E 014°53'4714.8
2014-Sep-22 12:19N 55°56' E 016°05'1214.6
2014-Sep-22 11:31N 56°01' E 016°24'31214.0
2014-Sep-21 13:16N 59°39' E 023°24'1014.0
2014-Sep-21 12:33N 59°41' E 023°43'1514.1
2014-Sep-21 11:28N 59°45' E 024°13'1314.1
2014-Sep-21 10:32N 59°48' E 024°38'4613.9
2014-Sep-21 07:12N 59°58' E 026°08'913.8
2014-Sep-21 06:32N 60°00' E 026°26'1313.3
2014-Sep-21 05:33N 60°00' E 026°52'9611.4
2014-Sep-20 21:09N 59°55' E 030°04'5 7.5
2014-Sep-20 20:33N 59°53' E 030°12'  
2014-Sep-17 03:33N 59°58' E 026°60'1312.9
2014-Sep-17 02:33N 59°58' E 026°34'3113.2
2014-Sep-17 00:10N 59°51' E 025°33'2212.9
2014-Sep-16 22:28N 59°46' E 024°50'1212.8
2014-Sep-16 21:33N 59°44' E 024°28'1412.7
2014-Sep-16 20:29N 59°40' E 024°02'1312.9
2014-Sep-16 19:31N 59°36' E 023°39'20212.6
2014-Sep-16 03:26N 57°10' E 019°12'1112.5
2014-Sep-16 02:31N 57°01' E 018°60'1313.2
2014-Sep-16 01:33N 56°53' E 018°41'1413.0
2014-Sep-16 00:29N 56°44' E 018°21'1313.1
2014-Sep-15 23:30N 56°37' E 018°03'3213.1
2014-Sep-15 21:05N 56°17' E 017°18'813.1
2014-Sep-15 20:27N 56°12' E 017°06'1112.5
2014-Sep-15 19:33N 56°05' E 016°50'1312.0
2014-Sep-15 18:30N 55°58' E 016°31'4711.7
2014-Sep-15 14:25N 55°35' E 015°17'1011.2
2014-Sep-15 13:32N 55°31' E 015°01'1111.4
2014-Sep-15 12:33N 55°25' E 014°44'1111.4
2014-Sep-15 11:34N 55°17' E 014°30'1111.1
2014-Sep-15 10:34N 55°10' E 014°16'1211.5
2014-Sep-15 09:33N 55°11' E 013°56'1111.6
2014-Sep-15 08:33N 55°12' E 013°36'1111.5
2014-Sep-15 07:33N 55°13' E 013°16'1211.6
2014-Sep-15 06:33N 55°15' E 012°55'1111.1
2014-Sep-15 05:33N 55°19' E 012°38'1312.9
2014-Sep-15 04:33N 55°32' E 012°42'1211.9
2014-Sep-15 03:33N 55°44' E 012°41'1212.5
2014-Sep-15 02:33N 55°56' E 012°39'1110.5
2014-Sep-15 01:33N 56°06' E 012°32'1212.4
2014-Sep-15 00:33N 56°13' E 012°14'1211.7
2014-Sep-14 23:33N 56°22' E 012°01'1212.3
2014-Sep-14 22:33N 56°34' E 011°56'1312.4
2014-Sep-14 21:32N 56°47' E 011°50'1212.6
2014-Sep-14 20:33N 56°58' E 011°43'1312.9
2014-Sep-14 19:33N 57°11' E 011°35'1312.8
2014-Sep-14 18:33N 57°23' E 011°27'1212.4
2014-Sep-14 17:33N 57°32' E 011°13'1312.7
2014-Sep-14 16:33N 57°41' E 010°56'1211.9
2014-Sep-14 15:33N 57°47' E 010°37'2812.0
2014-Sep-14 13:14N 57°45' E 009°44'12511.6
2014-Sep-14 02:25N 58°03' E 005°51'  
Track history (hours):
 
Tides and Currents Weather Stations Pressure Air Temp Water Temp Dewpoint Dewpoint Depression Visibility Wind Speed Wind Dir Waves Ship Positions

Green Lofoten

Last reported at 2014-Sep-23 09:14 UTC. Time now 2014-Sep-23 12:26 UTC.
Position N 57°45' E 010°54'.

Length 98 m; draft 4.7 m.

Type: Cargo ship. MMSI: 212857000.

Date/timePositionNaut miles runAvg speedWind from/ knotsBaromVisibWave heightAir tempDewpointWater temp
2014-Sep-23 09:14N 57°45' E 010°54'1014.2
2014-Sep-23 08:33N 57°38' E 011°06'1413.9
2014-Sep-23 07:34N 57°28' E 011°25'1414.0
2014-Sep-23 06:33N 57°15' E 011°34'1414.1
2014-Sep-23 05:33N 57°02' E 011°43'1414.0
2014-Sep-23 04:33N 56°49' E 011°52'1413.8
2014-Sep-23 03:32N 56°35' E 011°58'1313.6
2014-Sep-23 02:33N 56°22' E 012°03'1313.0
2014-Sep-23 01:33N 56°13' E 012°20'1413.9
2014-Sep-23 00:34N 56°04' E 012°39'1212.4
2014-Sep-22 23:34N 55°51' E 012°41'1312.6
2014-Sep-22 22:34N 55°39' E 012°42'1212.0
2014-Sep-22 21:33N 55°27' E 012°42'1211.6
2014-Sep-22 20:33N 55°16' E 012°51'1515.0
2014-Sep-22 19:33N 55°15' E 013°17'3315.2
2014-Sep-22 17:25N 55°14' E 014°14'1315.1
2014-Sep-22 16:33N 55°23' E 014°30'1615.0
2014-Sep-22 15:31N 55°31' E 014°53'4714.8
2014-Sep-22 12:19N 55°56' E 016°05'1214.6
2014-Sep-22 11:31N 56°01' E 016°24'31214.0
2014-Sep-21 13:16N 59°39' E 023°24'1014.0
2014-Sep-21 12:33N 59°41' E 023°43'1514.1
2014-Sep-21 11:28N 59°45' E 024°13'1314.1
2014-Sep-21 10:32N 59°48' E 024°38'4613.9
2014-Sep-21 07:12N 59°58' E 026°08'913.8
2014-Sep-21 06:32N 60°00' E 026°26'1313.3
2014-Sep-21 05:33N 60°00' E 026°52'9611.4
2014-Sep-20 21:09N 59°55' E 030°04'5 7.5
2014-Sep-20 20:33N 59°53' E 030°12'  
2014-Sep-17 03:33N 59°58' E 026°60'1312.9
2014-Sep-17 02:33N 59°58' E 026°34'3113.2
2014-Sep-17 00:10N 59°51' E 025°33'2212.9
2014-Sep-16 22:28N 59°46' E 024°50'1212.8
2014-Sep-16 21:33N 59°44' E 024°28'1412.7
2014-Sep-16 20:29N 59°40' E 024°02'1312.9
2014-Sep-16 19:31N 59°36' E 023°39'20212.6
2014-Sep-16 03:26N 57°10' E 019°12'1112.5
2014-Sep-16 02:31N 57°01' E 018°60'1313.2
2014-Sep-16 01:33N 56°53' E 018°41'1413.0
2014-Sep-16 00:29N 56°44' E 018°21'1313.1
2014-Sep-15 23:30N 56°37' E 018°03'3213.1
2014-Sep-15 21:05N 56°17' E 017°18'813.1
2014-Sep-15 20:27N 56°12' E 017°06'1112.5
2014-Sep-15 19:33N 56°05' E 016°50'1312.0
2014-Sep-15 18:30N 55°58' E 016°31'4711.7
2014-Sep-15 14:25N 55°35' E 015°17'1011.2
2014-Sep-15 13:32N 55°31' E 015°01'1111.4
2014-Sep-15 12:33N 55°25' E 014°44'1111.4
2014-Sep-15 11:34N 55°17' E 014°30'1111.1
2014-Sep-15 10:34N 55°10' E 014°16'1211.5
2014-Sep-15 09:33N 55°11' E 013°56'1111.6
2014-Sep-15 08:33N 55°12' E 013°36'1111.5
2014-Sep-15 07:33N 55°13' E 013°16'1211.6
2014-Sep-15 06:33N 55°15' E 012°55'1111.1
2014-Sep-15 05:33N 55°19' E 012°38'1312.9
2014-Sep-15 04:33N 55°32' E 012°42'1211.9
2014-Sep-15 03:33N 55°44' E 012°41'1212.5
2014-Sep-15 02:33N 55°56' E 012°39'1110.5
2014-Sep-15 01:33N 56°06' E 012°32'1212.4
2014-Sep-15 00:33N 56°13' E 012°14'1211.7
2014-Sep-14 23:33N 56°22' E 012°01'1212.3
2014-Sep-14 22:33N 56°34' E 011°56'1312.4
2014-Sep-14 21:32N 56°47' E 011°50'1212.6
2014-Sep-14 20:33N 56°58' E 011°43'1312.9
2014-Sep-14 19:33N 57°11' E 011°35'1312.8
2014-Sep-14 18:33N 57°23' E 011°27'1212.4
2014-Sep-14 17:33N 57°32' E 011°13'1312.7
2014-Sep-14 16:33N 57°41' E 010°56'1211.9
2014-Sep-14 15:33N 57°47' E 010°37'2812.0
2014-Sep-14 13:14N 57°45' E 009°44'12511.6
2014-Sep-14 02:25N 58°03' E 005°51'  

Dump ship's entire track history